Historyczne dane pomiarowe

Dodano dane terminowe – wersja testowa.

Dane z okresu 1951-2019

Wersja bazy: 1.34 [2019-03-16, lista zmian], aktualizacja planowana na 2019-04-15

Dane meteo z obszaru Polski uzyskane na podstawie danych udostępnionych przez Instytut Meteorologii i Gospodarki Wodnej – Państwowy Instytut Badawczy.

 

Wybierz Datę:    

       

TemperaturaWilgotnośćWiatrCiśnienieOpadyŚniegCzas trwania zjawisk
 Stacja t tx tn tng RH VA  wxwx mslp ppp RRR   cm mm wxwxwxwxwxwxwx
2020-02-29 -5.8 -2.0 -9.2- 97.5 4.0 7.6 14.5 23.5 14.2- 821.2 3.9 2.5 0.0130 3.5 0.0- 6.6- 22.0---
2020-02-28 -8.0 -6.8 -8.5- 95.4 3.2 6.6 16.3 21.8 11.0- 824.6 8.8 5.6 3.2124 3.7 0.5- 9.7- 23.2---
2020-02-27 -8.0 -7.2 -8.5- 94.8 3.2 7.5 15.6 17.2 10.2- 817.2 4.8 1.8 3.0119 3.8 1.4- 11.3- 22.2---
2020-02-26 -6.1 -1.6 -7.7- 97.5 3.8 7.8 12.6 18.5 13.7- 813.1 7.2 1.7 5.5113 3.9 0.6- 13.8- 24.0---
2020-02-25 -1.4 -0.3 -5.9-100.0 5.6 8.0 18.8 19.3 15.5- 819.0 11.8 7.7 4.1104 4.0 0.0- 10.8- 24.0---
2020-02-24 -6.4 1.8 -7.6- 99.0 3.8 7.6 21.8 21.3 16.3- 828.9 6.3 1.7 4.6 99 4.0 4.9- 9.6- 24.0---
2020-02-23 -1.2 1.9 -2.5-100.0 5.6 8.0 23.4 24.0 20.5- 827.1 12.7 6.3 6.4 96 3.7 0.0 4.7 13.6- 24.0---
2020-02-22 -3.3 1.6 -6.9- 84.9 4.0 6.8 22.8 24.0 18.8- 835.1 3.3 0.0 3.3 94 3.6 0.5- 1.6- 10.0---
2020-02-21 -6.0 -3.7 -7.5- 96.6 3.8 7.8 19.4 24.0 16.7- 832.8 4.6 4.3 0.3 92 3.6 0.0- 9.1- 24.0---
2020-02-20 -6.1 -3.8 -8.8- 95.9 3.8 7.0 12.4 15.2 3.7- 833.5 6.5 0.5 6.0 88 3.5 4.2- 2.2- 21.0---
2020-02-19 -5.9 -4.4 -7.1- 97.0 3.9 7.9 16.1 21.5 16.5- 830.3 8.4 4.1 4.3 80 3.7 0.0- 4.5- 24.0---
2020-02-18 -4.3 -1.3 -5.4- 98.8 4.4 8.0 17.6 24.0 20.3- 834.4 3.8 3.5 0.3 77 3.8 0.4- 3.5- 24.0---
2020-02-17 -0.7 2.9 -2.7- 92.8 5.4 7.3 17.6 21.7 14.7- 831.8 3.3 1.3 2.0 75 3.8 0.7 0.1 8.7- 13.5---
2020-02-16 -1.2 1.3 -3.7- 83.5 4.7 7.0 21.5 24.0 24.0- 833.7 0.9 0.9 0.0 75 3.7 2.1 0.9- 0.3 6.6---
2020-02-15 -3.8 -0.2 -5.5- 83.1 3.8 7.3 10.3 11.7 5.2- 839.5 0.0 0.0 0.0 75 3.7 5.0--- 12.7---
2020-02-14 -4.3 -2.9 -6.4- 98.1 4.4 7.4 15.8 22.8 13.3- 829.3 1.4 1.2 0.2 74 3.7 4.6- 8.5- 24.0---
2020-02-13 -7.6 -6.4 -8.8- 95.1 3.3 7.4 17.9 22.8 18.0- 827.0 3.9 0.2 3.7 71 3.8 2.1- 3.8- 24.0---
2020-02-12 -8.4 -7.7 -8.9- 94.6 3.1 6.9 22.0 24.0 24.0- 823.4 5.6 4.4 1.2 67 3.9 0.0- 5.6- 24.0---
2020-02-11 -7.1 -4.4 -8.3- 95.8 3.5 8.0 26.8 24.0 23.0- 814.1 2.0 1.3 0.7 66 3.9 0.0- 7.1- 24.0---
2020-02-10 -3.7 -1.3 -6.7- 96.8 4.5 7.8 22.1 24.0 20.8- 813.5 3.8 1.4 2.4 63 4.0 0.0- 4.8- 18.7-- 0.5
2020-02-09 -2.0 2.3 -4.2- 79.0 4.0 7.0 10.1 13.8 3.5- 833.0 0.9 0.1 0.8 63 4.0 5.6- 0.5- 13.8---
2020-02-08 0.0 2.8 -6.5- 42.8 2.5 0.6 10.8 17.0 0.3- 840.8 0.0 0.0 0.0 64 4.0 7.8-------
2020-02-07 -5.2 -2.8 -6.6- 98.1 4.1 5.9 9.1 11.3 0.0- 840.8 0.6 0.6 0.0 66 3.9 0.5- 6.0- 17.5---
2020-02-06 -7.8 -5.4-10.9- 96.1 3.3 7.5 19.1 24.0 15.7- 838.2 7.8 1.2 6.6 61 4.0 0.0- 2.1- 24.0---
2020-02-05 -8.4 -6.6 -9.2- 95.9 3.1 8.0 21.1 24.0 20.0- 833.6 3.8 3.3 0.5 59 3.9 0.0- 9.3- 24.0---
2020-02-04 -5.4 -1.8 -6.8- 98.3 4.1 8.0 17.3 18.7 16.5- 819.8 19.3 8.9 10.4 39 3.9 0.0- 23.4- 24.0---
2020-02-03 -2.1 -0.1 -3.0-100.0 5.3 8.0 25.3 24.0 21.7- 824.2 17.2 9.8 7.4 27 4.0 0.0- 17.3- 24.0---
2020-02-02 -2.3 1.8 -4.6-100.0 5.2 8.0 21.6 23.0 19.8- 823.5 9.9 3.3 6.6 21 4.2 0.0- 5.9- 24.0---
2020-02-01 1.3 4.3 0.5- 99.8 6.7 7.6 18.9 20.3 14.8- 825.1 5.7 1.6 4.1 21 4.5 0.0 4.6 1.3- 24.0---
2020-01-31 -0.2 1.8 -4.5- 94.8 5.7 7.5 28.3 24.0 24.0- 822.8 1.0 0.7 0.0 23 4.6 1.8 0.3 4.1- 19.9---
2020-01-30 -5.6 -3.8 -7.6- 97.4 4.0 7.9 23.4 24.0 24.0- 824.7 4.7 1.6 3.1 24 3.6 0.0--- 21.3---
2020-01-29 -7.7 -5.9 -8.5- 95.6 3.3 7.9 19.1 24.0 21.3- 818.5 5.3 3.7 1.6 22 3.8 0.0- 6.1- 24.0---
2020-01-28 -5.0 -3.1 -6.0- 97.9 4.1 8.0 11.5 14.5 7.3- 816.1 6.8 4.3 2.5 17 4.1 0.0- 20.9- 24.0---
2020-01-27 -2.6 0.2 -3.6-100.0 5.1 7.1 9.3 11.0 0.0- 830.3 2.0 0.0 2.0 15 4.4 3.0- 1.8- 24.0---
2020-01-26 0.3 2.0 -0.4- 59.3 3.7 5.8 9.9 12.2 0.0- 835.4 0.0 0.0 0.0 16 4.4 4.1--- 1.5---
2020-01-25 0.7 3.2 -2.1- 51.9 3.3 0.8 8.6 6.5 0.0- 836.3 0.0 0.0 0.0 17 4.4 8.1-------
2020-01-24 2.6 5.3 -1.5- 15.1 1.1 0.8 9.4 11.8 0.0- 838.3 0.0 0.0 0.0 25 4.3 7.8-------
2020-01-23 -2.8 2.8 -8.7- 48.3 2.1 2.1 5.9 0.0 0.0- 844.9 0.0 0.0 0.0 25 4.3 8.3--- 1.3---
2020-01-22 -2.6 4.4 -6.4- 66.5 3.0 5.3 18.9 21.8 19.2- 843.1 4.2 1.4 2.8 23 4.5 2.1- 6.5- 15.3---
2020-01-21 1.2 4.5 -5.5- 21.0 1.2 1.5 11.6 18.5 4.3- 852.5 0.0 0.0 0.0 24 4.5 8.8-------
2020-01-20 -5.8 -2.9 -8.1- 83.4 3.3 3.5 5.4 2.2 0.0- 854.0 0.0 0.0 0.0 24 4.5 8.1- 3.2- 6.5---
2020-01-19 -6.6 -6.0 -7.5- 96.4 3.6 8.0 10.4 14.5 0.0- 843.1 5.3 3.5 1.8 20 4.6 0.0- 13.5- 24.0---
2020-01-18 -4.1 -0.6 -6.7- 98.6 4.5 7.9 11.5 12.7 2.3- 837.4 3.0 1.8 1.2 18 4.7 0.0- 2.7- 21.2---
2020-01-17 -3.2 -0.6 -5.9- 99.4 4.8 7.8 19.6 24.0 22.3- 837.2 1.2 0.9 0.3 18 4.7 0.0- 0.7- 24.0---
2020-01-16 -0.6 5.9 -1.4- 96.6 5.7 4.8 12.3 14.0 8.8- 843.9 0.4 0.1 0.3 19 4.7 5.4--- 14.2---
2020-01-15 3.2 6.2 -2.0- 50.1 3.6 4.9 11.6 21.0 4.2- 837.2 0.0 0.0 0.0 21 4.6 5.6-------
2020-01-14 -2.5 -0.2 -5.3- 94.5 4.8 7.3 12.6 22.3 4.2- 833.6 0.0 0.0 0.0 22 4.4 2.4--- 11.3---
2020-01-13 -4.4 1.7 -5.4- 99.5 4.4 6.3 13.6 14.2 5.8- 836.3 0.2 0.1 0.1 22 4.4 0.0--- 24.0---
2020-01-12 -0.5 2.1 -3.5- 48.3 2.9 6.1 12.4 19.0 5.5- 839.5 0.0 0.0 0.0 23 4.5 4.9--- 2.5---
2020-01-11 -4.1 -1.5 -7.0- 93.5 4.2 4.9 12.6 10.7 6.8- 841.5 0.0 0.0 0.0 23 4.9 3.7--- 11.3---
2020-01-10 -0.3 2.4 -1.8-100.0 6.0 8.0 16.5 24.0 15.2- 833.4 2.8 1.0 1.8 23 4.9 0.0- 1.8- 24.0---
2020-01-09 1.9 5.3 0.9-100.0 7.0 8.0 13.4 21.0 4.0- 837.4 4.4 3.5 0.9 25 4.8 0.0 7.6-- 24.0---
2020-01-08 0.7 5.4 -5.4- 70.1 4.7 6.0 18.0 24.0 14.5- 840.9 8.5 3.6 4.9 28 4.5 0.6 1.2 0.3 0.2 11.3---
2020-01-07 -1.3 3.6 -5.7- 67.5 3.6 4.4 16.8 19.8 6.5- 838.5 0.1 0.0 0.1 29 4.3 5.7--- 10.3---
2020-01-06 -4.6 2.1-10.6- 75.5 3.1 3.5 11.8 14.2 6.8- 841.0 0.0 0.0 0.0 30 4.1 5.6--- 11.0---
2020-01-05 -9.6 -6.0-10.2- 92.3 2.7 5.9 17.9 17.5 9.3- 841.1 0.0 0.0 0.0 31 4.0 2.1--- 17.7---
2020-01-04 -6.0 -2.1 -7.4- 97.0 3.8 7.9 27.3 24.0 24.0- 831.6 3.1 1.6 1.5 28 4.0 0.0- 15.7- 24.0---
2020-01-03 -1.9 4.8 -4.1- 81.6 4.1 5.1 19.3 24.0 14.8- 835.0 3.2 0.2 3.0 27 4.0 0.0- 2.8- 16.8---
2020-01-02 4.6 7.5 1.3- 15.6 1.3 2.3 11.5 12.3 5.2- 844.8 0.0 0.0 0.0 29 3.9 7.4-------
2020-01-01 -3.4 2.3 -7.9- 50.6 2.0 4.0 12.4 24.0 0.0- 845.7 0.0 0.0 0.0 30 3.7 7.5--- 5.2---
67.5 ms

 

Źródłem pochodzenia danych jest Instytut Meteorologii i Gospodarki Wodnej – Państwowy Instytut Badawczy. Dane Instytutu Meteorologii i Gospodarki Wodnej – Państwowego Instytutu Badawczego zostały przetworzone.

Dane źródłowe można odnaleźć na stronie https://dane.imgw.pl